sensor_id;sensor_type;location;lat;lon;timestamp;pressure;altitude;pressure_sealevel;temperature;humidity
14885;BME280;7534;50.762;7.000;2023-07-29T00:00:35;86869.31;;;-143.16;85.77
14885;BME280;7534;50.762;7.000;2023-07-29T00:03:00;86867.31;;;-143.16;85.64
14885;BME280;7534;50.762;7.000;2023-07-29T00:05:26;86816.88;;;-143.16;85.61
14885;BME280;7534;50.762;7.000;2023-07-29T00:07:52;86857.22;;;-143.16;85.36
14885;BME280;7534;50.762;7.000;2023-07-29T00:10:18;86828.97;;;-143.16;84.90
14885;BME280;7534;50.762;7.000;2023-07-29T00:12:43;86782.56;;;-143.16;84.65
14885;BME280;7534;50.762;7.000;2023-07-29T00:15:09;86822.91;;;-143.16;84.34
14885;BME280;7534;50.762;7.000;2023-07-29T00:17:36;86770.44;;;-143.16;83.65
14885;BME280;7534;50.762;7.000;2023-07-29T00:20:01;86772.47;;;-143.16;83.09
14885;BME280;7534;50.762;7.000;2023-07-29T00:22:28;86897.59;;;-143.16;83.20
14885;BME280;7534;50.762;7.000;2023-07-29T00:24:54;86760.38;;;-143.16;82.81
14885;BME280;7534;50.762;7.000;2023-07-29T00:27:21;86746.25;;;-143.16;82.41
14885;BME280;7534;50.762;7.000;2023-07-29T00:29:46;86768.44;;;-143.16;82.04
14885;BME280;7534;50.762;7.000;2023-07-29T00:32:12;86756.31;;;-143.16;81.79
14885;BME280;7534;50.762;7.000;2023-07-29T00:34:38;86784.56;;;-143.16;81.24
14885;BME280;7534;50.762;7.000;2023-07-29T00:37:04;86780.53;;;-143.16;80.89
14885;BME280;7534;50.762;7.000;2023-07-29T00:39:35;86758.34;;;-143.16;80.38
14885;BME280;7534;50.762;7.000;2023-07-29T00:42:01;86764.41;;;-143.16;79.63
14885;BME280;7534;50.762;7.000;2023-07-29T00:44:27;86766.41;;;-143.16;79.18
14885;BME280;7534;50.762;7.000;2023-07-29T00:46:54;86720.00;;;-143.16;79.01
14885;BME280;7534;50.762;7.000;2023-07-29T00:49:21;86730.09;;;-143.16;78.69
14885;BME280;7534;50.762;7.000;2023-07-29T00:51:47;86679.66;;;-143.16;78.65
14885;BME280;7534;50.762;7.000;2023-07-29T00:54:13;86683.69;;;-143.16;78.03
14885;BME280;7534;50.762;7.000;2023-07-29T00:56:40;86671.59;;;-143.16;77.66
14885;BME280;7534;50.762;7.000;2023-07-29T00:59:06;86707.91;;;-143.16;78.03
14885;BME280;7534;50.762;7.000;2023-07-29T01:01:32;86748.25;;;-143.16;76.62
14885;BME280;7534;50.762;7.000;2023-07-29T01:03:58;86691.75;;;-143.16;76.35
14885;BME280;7534;50.762;7.000;2023-07-29T01:06:41;86671.59;;;-143.16;76.29
14885;BME280;7534;50.762;7.000;2023-07-29T01:10:02;86679.66;;;-143.16;76.32
14885;BME280;7534;50.762;7.000;2023-07-29T01:13:00;86657.47;;;-143.16;76.48
14885;BME280;7534;50.762;7.000;2023-07-29T01:15:35;86687.72;;;-143.16;76.06
14885;BME280;7534;50.762;7.000;2023-07-29T01:18:08;86768.44;;;-143.16;75.88
14885;BME280;7534;50.762;7.000;2023-07-29T01:20:42;86691.75;;;-143.16;76.15
14885;BME280;7534;50.762;7.000;2023-07-29T01:23:09;86720.00;;;-143.16;76.39
14885;BME280;7534;50.762;7.000;2023-07-29T01:25:35;86681.66;;;-143.16;76.32
14885;BME280;7534;50.762;7.000;2023-07-29T01:28:01;86705.88;;;-143.16;76.32
14885;BME280;7534;50.762;7.000;2023-07-29T01:30:34;86732.13;;;-143.16;76.42
14885;BME280;7534;50.762;7.000;2023-07-29T01:33:25;86728.06;;;-143.16;76.43
14885;BME280;7534;50.762;7.000;2023-07-29T01:35:58;86687.72;;;-143.16;76.26
14885;BME280;7534;50.762;7.000;2023-07-29T01:38:35;86705.88;;;-143.16;76.50
14885;BME280;7534;50.762;7.000;2023-07-29T01:41:04;86760.38;;;-143.16;76.51
14885;BME280;7534;50.762;7.000;2023-07-29T01:43:32;86703.88;;;-143.16;76.36
14885;BME280;7534;50.762;7.000;2023-07-29T01:45:59;86693.78;;;-143.16;76.23
14885;BME280;7534;50.762;7.000;2023-07-29T01:48:25;86722.03;;;-143.16;76.26
14885;BME280;7534;50.762;7.000;2023-07-29T01:50:53;86679.66;;;-143.16;76.47
14885;BME280;7534;50.762;7.000;2023-07-29T01:53:18;86726.06;;;-143.16;76.60
14885;BME280;7534;50.762;7.000;2023-07-29T01:55:44;86701.84;;;-143.16;76.28
14885;BME280;7534;50.762;7.000;2023-07-29T01:58:11;86699.81;;;-143.16;76.01
14885;BME280;7534;50.762;7.000;2023-07-29T02:00:36;86689.75;;;-143.16;76.25
14885;BME280;7534;50.762;7.000;2023-07-29T02:03:02;86675.63;;;-143.16;76.09
14885;BME280;7534;50.762;7.000;2023-07-29T02:05:28;86703.88;;;-143.16;75.97
14885;BME280;7534;50.762;7.000;2023-07-29T02:07:54;86734.13;;;-143.16;75.89
14885;BME280;7534;50.762;7.000;2023-07-29T02:10:20;86669.56;;;-143.16;75.85
14885;BME280;7534;50.762;7.000;2023-07-29T02:12:45;86637.28;;;-143.16;75.63
14885;BME280;7534;50.762;7.000;2023-07-29T02:15:11;86655.44;;;-143.16;75.36
14885;BME280;7534;50.762;7.000;2023-07-29T02:17:37;86643.34;;;-143.16;75.25
14885;BME280;7534;50.762;7.000;2023-07-29T02:20:03;86635.25;;;-143.16;75.09
14885;BME280;7534;50.762;7.000;2023-07-29T02:22:29;86574.72;;;-143.16;74.83
14885;BME280;7534;50.762;7.000;2023-07-29T02:24:55;86629.22;;;-143.16;74.48
14885;BME280;7534;50.762;7.000;2023-07-29T02:27:21;86671.59;;;-143.16;74.63
14885;BME280;7534;50.762;7.000;2023-07-29T02:29:47;86637.28;;;-143.16;74.47
14885;BME280;7534;50.762;7.000;2023-07-29T02:32:12;86629.22;;;-143.16;74.21
14885;BME280;7534;50.762;7.000;2023-07-29T02:34:38;86667.53;;;-143.16;74.07
14885;BME280;7534;50.762;7.000;2023-07-29T02:37:04;86617.09;;;-143.16;74.59
14885;BME280;7534;50.762;7.000;2023-07-29T02:39:30;86679.66;;;-143.16;75.06
14885;BME280;7534;50.762;7.000;2023-07-29T02:41:56;86679.66;;;-143.16;75.37
14885;BME280;7534;50.762;7.000;2023-07-29T02:44:24;86703.88;;;-143.16;75.68
14885;BME280;7534;50.762;7.000;2023-07-29T02:46:49;86709.91;;;-143.16;77.08
14885;BME280;7534;50.762;7.000;2023-07-29T02:49:17;86784.56;;;-143.16;79.15
14885;BME280;7534;50.762;7.000;2023-07-29T02:51:43;86826.94;;;-143.16;79.97
14885;BME280;7534;50.762;7.000;2023-07-29T02:54:09;86869.31;;;-143.16;82.40
14885;BME280;7534;50.762;7.000;2023-07-29T02:56:34;86925.84;;;-143.16;83.60
14885;BME280;7534;50.762;7.000;2023-07-29T02:59:00;86814.84;;;-143.16;83.69
14885;BME280;7534;50.762;7.000;2023-07-29T03:01:26;86946.00;;;-143.16;84.14
14885;BME280;7534;50.762;7.000;2023-07-29T03:03:52;86958.13;;;-143.16;84.54
14885;BME280;7534;50.762;7.000;2023-07-29T03:06:19;86958.13;;;-143.16;85.30
14885;BME280;7534;50.762;7.000;2023-07-29T03:08:45;86962.16;;;-143.16;85.71
14885;BME280;7534;50.762;7.000;2023-07-29T03:11:14;86946.00;;;-143.16;85.72
14885;BME280;7534;50.762;7.000;2023-07-29T03:13:40;86998.47;;;-143.16;86.16
14885;BME280;7534;50.762;7.000;2023-07-29T03:16:14;87046.91;;;-143.16;86.66
14885;BME280;7534;50.762;7.000;2023-07-29T03:18:42;86998.47;;;-143.16;87.50
14885;BME280;7534;50.762;7.000;2023-07-29T03:21:09;87008.56;;;-143.16;88.17
14885;BME280;7534;50.762;7.000;2023-07-29T03:23:38;87057.00;;;-143.16;89.20
14885;BME280;7534;50.762;7.000;2023-07-29T03:26:04;87032.78;;;-143.16;89.79
14885;BME280;7534;50.762;7.000;2023-07-29T03:28:41;87028.75;;;-143.16;90.29
14885;BME280;7534;50.762;7.000;2023-07-29T03:31:08;87081.22;;;-143.16;90.73
14885;BME280;7534;50.762;7.000;2023-07-29T03:33:34;87044.88;;;-143.16;91.28
14885;BME280;7534;50.762;7.000;2023-07-29T03:35:59;87081.22;;;-143.16;91.52
14885;BME280;7534;50.762;7.000;2023-07-29T03:38:25;87036.81;;;-143.16;91.77
14885;BME280;7534;50.762;7.000;2023-07-29T03:40:51;87034.81;;;-143.16;91.93
14885;BME280;7534;50.762;7.000;2023-07-29T03:43:19;87087.25;;;-143.16;92.02
14885;BME280;7534;50.762;7.000;2023-07-29T03:45:44;87030.75;;;-143.16;92.22
14885;BME280;7534;50.762;7.000;2023-07-29T03:48:10;87075.16;;;-143.16;92.25
14885;BME280;7534;50.762;7.000;2023-07-29T03:50:37;87018.66;;;-143.16;92.23
14885;BME280;7534;50.762;7.000;2023-07-29T03:53:04;87057.00;;;-143.16;92.15
14885;BME280;7534;50.762;7.000;2023-07-29T03:55:30;87036.81;;;-143.16;92.07
14885;BME280;7534;50.762;7.000;2023-07-29T03:58:00;87036.81;;;-143.16;92.40
14885;BME280;7534;50.762;7.000;2023-07-29T04:00:26;87026.72;;;-143.16;92.27
14885;BME280;7534;50.762;7.000;2023-07-29T04:02:52;87030.75;;;-143.16;92.31
14885;BME280;7534;50.762;7.000;2023-07-29T04:05:18;86994.44;;;-143.16;92.05
14885;BME280;7534;50.762;7.000;2023-07-29T04:07:45;86994.44;;;-143.16;91.75
14885;BME280;7534;50.762;7.000;2023-07-29T04:10:11;87079.19;;;-143.16;91.59
14885;BME280;7534;50.762;7.000;2023-07-29T04:12:37;86974.25;;;-143.16;91.56
14885;BME280;7534;50.762;7.000;2023-07-29T04:15:02;87018.66;;;-143.16;91.41
14885;BME280;7534;50.762;7.000;2023-07-29T04:17:28;87067.09;;;-143.16;91.52
14885;BME280;7534;50.762;7.000;2023-07-29T04:19:54;87040.84;;;-143.16;91.68
14885;BME280;7534;50.762;7.000;2023-07-29T04:22:20;87050.94;;;-143.16;91.64
14885;BME280;7534;50.762;7.000;2023-07-29T04:24:46;87044.88;;;-143.16;91.69
14885;BME280;7534;50.762;7.000;2023-07-29T04:27:12;87054.97;;;-143.16;92.25
14885;BME280;7534;50.762;7.000;2023-07-29T04:29:38;87048.94;;;-143.16;92.36
14885;BME280;7534;50.762;7.000;2023-07-29T04:32:04;87089.28;;;-143.16;93.31
14885;BME280;7534;50.762;7.000;2023-07-29T04:34:31;87061.03;;;-143.16;93.80
14885;BME280;7534;50.762;7.000;2023-07-29T04:36:57;87071.13;;;-143.16;93.82
14885;BME280;7534;50.762;7.000;2023-07-29T04:39:23;87075.16;;;-143.16;93.84
14885;BME280;7534;50.762;7.000;2023-07-29T04:41:49;87111.47;;;-143.16;94.09
14885;BME280;7534;50.762;7.000;2023-07-29T04:44:15;87083.22;;;-143.16;94.11
14885;BME280;7534;50.762;7.000;2023-07-29T04:46:41;87083.22;;;-143.16;93.90
14885;BME280;7534;50.762;7.000;2023-07-29T04:49:06;87042.88;;;-143.16;93.46
14885;BME280;7534;50.762;7.000;2023-07-29T04:51:32;87014.63;;;-143.16;93.34
14885;BME280;7534;50.762;7.000;2023-07-29T04:53:58;87002.50;;;-143.16;93.34
14885;BME280;7534;50.762;7.000;2023-07-29T04:56:25;87004.53;;;-143.16;93.14
14885;BME280;7534;50.762;7.000;2023-07-29T04:58:51;87030.75;;;-143.16;92.90
14885;BME280;7534;50.762;7.000;2023-07-29T05:01:17;87026.72;;;-143.16;93.05
14885;BME280;7534;50.762;7.000;2023-07-29T05:03:42;87065.06;;;-143.16;93.09
14885;BME280;7534;50.762;7.000;2023-07-29T05:06:08;87030.75;;;-143.16;93.21
14885;BME280;7534;50.762;7.000;2023-07-29T05:08:34;87018.66;;;-143.16;93.15
14885;BME280;7534;50.762;7.000;2023-07-29T05:11:00;87038.84;;;-143.16;92.81
14885;BME280;7534;50.762;7.000;2023-07-29T05:13:26;87006.53;;;-143.16;92.62
14885;BME280;7534;50.762;7.000;2023-07-29T05:15:51;87020.69;;;-143.16;92.55
14885;BME280;7534;50.762;7.000;2023-07-29T05:18:18;87028.75;;;-143.16;92.52
14885;BME280;7534;50.762;7.000;2023-07-29T05:20:43;87026.72;;;-143.16;92.40
14885;BME280;7534;50.762;7.000;2023-07-29T05:23:09;86994.44;;;-143.16;92.30
14885;BME280;7534;50.762;7.000;2023-07-29T05:25:35;86976.28;;;-143.16;92.22
14885;BME280;7534;50.762;7.000;2023-07-29T05:28:01;86950.03;;;-143.16;92.19
14885;BME280;7534;50.762;7.000;2023-07-29T05:30:28;86937.94;;;-143.16;92.03
14885;BME280;7534;50.762;7.000;2023-07-29T05:33:00;86915.75;;;-143.16;91.46
14885;BME280;7534;50.762;7.000;2023-07-29T05:35:26;86863.28;;;-143.16;91.06
14885;BME280;7534;50.762;7.000;2023-07-29T05:37:52;86865.28;;;-143.16;90.59
14885;BME280;7534;50.762;7.000;2023-07-29T05:40:18;86833.00;;;-143.16;90.18
14885;BME280;7534;50.762;7.000;2023-07-29T05:42:45;86853.19;;;-143.16;90.06
14885;BME280;7534;50.762;7.000;2023-07-29T05:45:11;86822.91;;;-143.16;90.04
14885;BME280;7534;50.762;7.000;2023-07-29T05:47:37;86839.06;;;-143.16;89.97
14885;BME280;7534;50.762;7.000;2023-07-29T05:50:04;86869.31;;;-143.16;89.62
14885;BME280;7534;50.762;7.000;2023-07-29T05:52:33;86851.16;;;-143.16;89.49
14885;BME280;7534;50.762;7.000;2023-07-29T05:54:59;86812.81;;;-143.16;89.17
14885;BME280;7534;50.762;7.000;2023-07-29T05:57:25;86810.81;;;-143.16;88.97
14885;BME280;7534;50.762;7.000;2023-07-29T05:59:51;86808.78;;;-143.16;88.97
14885;BME280;7534;50.762;7.000;2023-07-29T06:02:17;86845.13;;;-143.16;88.82
14885;BME280;7534;50.762;7.000;2023-07-29T06:04:42;86796.69;;;-143.16;88.49
14885;BME280;7534;50.762;7.000;2023-07-29T06:07:08;86734.13;;;-143.16;88.12
14885;BME280;7534;50.762;7.000;2023-07-29T06:09:34;86730.09;;;-143.16;87.68
14885;BME280;7534;50.762;7.000;2023-07-29T06:12:00;86734.13;;;-143.16;87.50
14885;BME280;7534;50.762;7.000;2023-07-29T06:14:26;86707.91;;;-143.16;87.10
14885;BME280;7534;50.762;7.000;2023-07-29T06:16:51;86728.06;;;-143.16;87.13
14885;BME280;7534;50.762;7.000;2023-07-29T06:19:20;86740.19;;;-143.16;86.58
14885;BME280;7534;50.762;7.000;2023-07-29T06:21:46;86715.97;;;-143.16;86.36
14885;BME280;7534;50.762;7.000;2023-07-29T06:24:12;86722.03;;;-143.16;86.46
14885;BME280;7534;50.762;7.000;2023-07-29T06:26:37;86720.00;;;-143.16;86.33
14885;BME280;7534;50.762;7.000;2023-07-29T06:29:03;86744.22;;;-143.16;86.17
14885;BME280;7534;50.762;7.000;2023-07-29T06:31:28;86738.16;;;-143.16;85.64
14885;BME280;7534;50.762;7.000;2023-07-29T06:33:56;86730.09;;;-143.16;84.86
14885;BME280;7534;50.762;7.000;2023-07-29T06:36:21;86748.25;;;-143.16;84.38
14885;BME280;7534;50.762;7.000;2023-07-29T06:38:47;86687.72;;;-143.16;83.93
14885;BME280;7534;50.762;7.000;2023-07-29T06:41:13;86681.66;;;-143.16;83.38
14885;BME280;7534;50.762;7.000;2023-07-29T06:43:39;86703.88;;;-143.16;83.27
14885;BME280;7534;50.762;7.000;2023-07-29T06:46:05;86711.94;;;-143.16;82.91
14885;BME280;7534;50.762;7.000;2023-07-29T06:48:30;86681.66;;;-143.16;82.45
14885;BME280;7534;50.762;7.000;2023-07-29T06:50:56;86697.81;;;-143.16;81.71
14885;BME280;7534;50.762;7.000;2023-07-29T06:53:28;86627.19;;;-143.16;81.41
14885;BME280;7534;50.762;7.000;2023-07-29T06:55:54;86522.28;;;-143.16;80.06
14885;BME280;7534;50.762;7.000;2023-07-29T06:58:20;86546.47;;;-143.16;78.24
14885;BME280;7534;50.762;7.000;2023-07-29T07:00:47;86437.53;;;-143.16;76.06
14885;BME280;7534;50.762;7.000;2023-07-29T07:03:13;86395.16;;;-143.16;75.57
14885;BME280;7534;50.762;7.000;2023-07-29T07:05:39;86338.66;;;-143.16;75.24
14885;BME280;7534;50.762;7.000;2023-07-29T07:08:04;86334.63;;;-143.16;74.04
14885;BME280;7534;50.762;7.000;2023-07-29T07:10:30;86284.19;;;-143.16;73.07
14885;BME280;7534;50.762;7.000;2023-07-29T07:12:56;86264.00;;;-143.16;72.03
14885;BME280;7534;50.762;7.000;2023-07-29T07:15:21;86251.91;;;-143.16;71.60
14885;BME280;7534;50.762;7.000;2023-07-29T07:17:47;86356.81;;;-143.16;70.88
14885;BME280;7534;50.762;7.000;2023-07-29T07:20:13;86249.88;;;-143.16;69.91
14885;BME280;7534;50.762;7.000;2023-07-29T07:22:38;86253.94;;;-143.16;69.05
14885;BME280;7534;50.762;7.000;2023-07-29T07:25:05;86227.69;;;-143.16;68.16
14885;BME280;7534;50.762;7.000;2023-07-29T07:27:30;86296.28;;;-143.16;67.00
14885;BME280;7534;50.762;7.000;2023-07-29T07:29:56;86328.56;;;-143.16;66.91
14885;BME280;7534;50.762;7.000;2023-07-29T07:32:22;86223.66;;;-143.16;66.56
14885;BME280;7534;50.762;7.000;2023-07-29T07:34:47;86193.41;;;-143.16;66.59
14885;BME280;7534;50.762;7.000;2023-07-29T07:37:13;86201.47;;;-143.16;65.54
14885;BME280;7534;50.762;7.000;2023-07-29T07:39:39;86181.28;;;-143.16;64.84
14885;BME280;7534;50.762;7.000;2023-07-29T07:42:05;86181.28;;;-143.16;64.48
14885;BME280;7534;50.762;7.000;2023-07-29T07:44:31;86163.13;;;-143.16;61.15
14885;BME280;7534;50.762;7.000;2023-07-29T07:46:57;86066.31;;;-143.16;61.27
14885;BME280;7534;50.762;7.000;2023-07-29T07:49:23;86046.13;;;-143.16;60.25
14885;BME280;7534;50.762;7.000;2023-07-29T07:51:48;85886.75;;;-143.16;56.81
14885;BME280;7534;50.762;7.000;2023-07-29T07:54:14;85729.41;;;-143.16;55.29
14885;BME280;7534;50.762;7.000;2023-07-29T07:56:40;85769.75;;;-143.16;53.07
14885;BME280;7534;50.762;7.000;2023-07-29T07:59:05;85751.59;;;-143.16;54.85
14885;BME280;7534;50.762;7.000;2023-07-29T08:01:38;85678.97;;;-143.16;55.30
14885;BME280;7534;50.762;7.000;2023-07-29T08:04:05;85642.66;;;-143.16;49.77
14885;BME280;7534;50.762;7.000;2023-07-29T08:06:32;85664.84;;;-143.16;50.69
14885;BME280;7534;50.762;7.000;2023-07-29T08:08:58;85650.72;;;-143.16;50.76
14885;BME280;7534;50.762;7.000;2023-07-29T08:11:24;85666.88;;;-143.16;51.20
14885;BME280;7534;50.762;7.000;2023-07-29T08:13:50;85767.72;;;-143.16;50.02
14885;BME280;7534;50.762;7.000;2023-07-29T08:16:16;85915.00;;;-143.16;50.88
14885;BME280;7534;50.762;7.000;2023-07-29T08:18:41;85852.47;;;-143.16;51.08
14885;BME280;7534;50.762;7.000;2023-07-29T08:21:07;85787.91;;;-143.16;51.97
14885;BME280;7534;50.762;7.000;2023-07-29T08:23:35;85566.00;;;-143.16;48.56
14885;BME280;7534;50.762;7.000;2023-07-29T08:26:04;85449.03;;;-143.16;44.86
14885;BME280;7534;50.762;7.000;2023-07-29T08:28:37;85380.44;;;-143.16;44.04
14885;BME280;7534;50.762;7.000;2023-07-29T08:31:04;85634.59;;;-143.16;44.57
14885;BME280;7534;50.762;7.000;2023-07-29T08:33:31;85570.06;;;-143.16;44.68
14885;BME280;7534;50.762;7.000;2023-07-29T08:35:59;85521.63;;;-143.16;44.65
14885;BME280;7534;50.762;7.000;2023-07-29T08:38:25;85630.56;;;-143.16;43.58
14885;BME280;7534;50.762;7.000;2023-07-29T08:41:37;85705.19;;;-143.16;44.11
14885;BME280;7534;50.762;7.000;2023-07-29T08:44:13;85711.25;;;-143.16;44.71
14885;BME280;7534;50.762;7.000;2023-07-29T08:46:42;85880.69;;;-143.16;43.90
14885;BME280;7534;50.762;7.000;2023-07-29T08:49:08;85850.44;;;-143.16;44.95
14885;BME280;7534;50.762;7.000;2023-07-29T08:51:37;86005.78;;;-143.16;46.83
14885;BME280;7534;50.762;7.000;2023-07-29T08:54:04;86072.34;;;-143.16;47.77
14885;BME280;7534;50.762;7.000;2023-07-29T08:56:30;86118.75;;;-143.16;49.77
14885;BME280;7534;50.762;7.000;2023-07-29T08:58:56;86213.56;;;-143.16;49.91
14885;BME280;7534;50.762;7.000;2023-07-29T09:01:22;86215.59;;;-143.16;50.13
14885;BME280;7534;50.762;7.000;2023-07-29T09:03:48;86219.63;;;-143.16;51.20
14885;BME280;7534;50.762;7.000;2023-07-29T09:06:16;86179.28;;;-143.16;52.14
14885;BME280;7534;50.762;7.000;2023-07-29T09:09:02;86247.88;;;-143.16;52.68
14885;BME280;7534;50.762;7.000;2023-07-29T09:11:28;86181.28;;;-143.16;52.77
14885;BME280;7534;50.762;7.000;2023-07-29T09:13:54;86211.56;;;-143.16;52.39
14885;BME280;7534;50.762;7.000;2023-07-29T09:16:21;86205.50;;;-143.16;52.54
14885;BME280;7534;50.762;7.000;2023-07-29T09:18:51;86175.25;;;-143.16;52.09
14885;BME280;7534;50.762;7.000;2023-07-29T09:21:23;86153.06;;;-143.16;51.19
14885;BME280;7534;50.762;7.000;2023-07-29T09:23:50;86126.81;;;-143.16;51.50
14885;BME280;7534;50.762;7.000;2023-07-29T09:26:26;86114.72;;;-143.16;50.44
14885;BME280;7534;50.762;7.000;2023-07-29T09:28:57;86072.34;;;-143.16;50.25
14885;BME280;7534;50.762;7.000;2023-07-29T09:31:26;85951.31;;;-143.16;48.61
14885;BME280;7534;50.762;7.000;2023-07-29T09:34:03;85896.84;;;-143.16;46.96
14885;BME280;7534;50.762;7.000;2023-07-29T09:36:33;85775.81;;;-143.16;47.13
14885;BME280;7534;50.762;7.000;2023-07-29T09:38:59;85783.88;;;-143.16;46.21
14885;BME280;7534;50.762;7.000;2023-07-29T09:41:29;85725.38;;;-143.16;46.71
14885;BME280;7534;50.762;7.000;2023-07-29T09:44:01;85822.19;;;-143.16;45.82
14885;BME280;7534;50.762;7.000;2023-07-29T09:46:36;85854.47;;;-143.16;46.29
14885;BME280;7534;50.762;7.000;2023-07-29T09:49:07;85868.59;;;-143.16;46.50
14885;BME280;7534;50.762;7.000;2023-07-29T09:51:40;85933.16;;;-143.16;47.29
14885;BME280;7534;50.762;7.000;2023-07-29T09:54:06;85969.47;;;-143.16;47.13
14885;BME280;7534;50.762;7.000;2023-07-29T09:56:32;85979.56;;;-143.16;47.80
14885;BME280;7534;50.762;7.000;2023-07-29T09:58:58;85935.16;;;-143.16;47.37
14885;BME280;7534;50.762;7.000;2023-07-29T10:01:24;85900.88;;;-143.16;46.95
14885;BME280;7534;50.762;7.000;2023-07-29T10:03:50;85892.81;;;-143.16;46.65
14885;BME280;7534;50.762;7.000;2023-07-29T10:06:18;85896.84;;;-143.16;47.01
14885;BME280;7534;50.762;7.000;2023-07-29T10:08:45;85929.13;;;-143.16;47.00
14885;BME280;7534;50.762;7.000;2023-07-29T10:11:11;85904.91;;;-143.16;46.34
14885;BME280;7534;50.762;7.000;2023-07-29T10:13:38;85904.91;;;-143.16;46.52
14885;BME280;7534;50.762;7.000;2023-07-29T10:16:05;85921.03;;;-143.16;47.72
14885;BME280;7534;50.762;7.000;2023-07-29T10:18:32;85927.09;;;-143.16;48.08
14885;BME280;7534;50.762;7.000;2023-07-29T10:21:01;85951.31;;;-143.16;49.36
14885;BME280;7534;50.762;7.000;2023-07-29T10:23:32;85989.63;;;-143.16;50.11
14885;BME280;7534;50.762;7.000;2023-07-29T10:26:05;86003.75;;;-143.16;51.67
14885;BME280;7534;50.762;7.000;2023-07-29T10:28:32;86088.50;;;-143.16;53.65
14885;BME280;7534;50.762;7.000;2023-07-29T10:30:59;86179.28;;;-143.16;55.81
14885;BME280;7534;50.762;7.000;2023-07-29T10:33:26;86241.81;;;-143.16;57.66
14885;BME280;7534;50.762;7.000;2023-07-29T10:35:53;86268.03;;;-143.16;59.44
14885;BME280;7534;50.762;7.000;2023-07-29T10:38:24;86302.34;;;-143.16;61.14
14885;BME280;7534;50.762;7.000;2023-07-29T10:40:56;86385.06;;;-143.16;63.83
14885;BME280;7534;50.762;7.000;2023-07-29T10:45:57;86417.34;;;-143.16;66.74
14885;BME280;7534;50.762;7.000;2023-07-29T10:51:36;86483.94;;;-143.16;70.97
14885;BME280;7534;50.762;7.000;2023-07-29T10:54:11;86516.22;;;-143.16;71.43
14885;BME280;7534;50.762;7.000;2023-07-29T10:56:41;86568.69;;;-143.16;71.22
14885;BME280;7534;50.762;7.000;2023-07-29T11:01:57;86518.22;;;-143.16;73.60
14885;BME280;7534;50.762;7.000;2023-07-29T11:04:29;86498.06;;;-143.16;71.80
14885;BME280;7534;50.762;7.000;2023-07-29T11:12:40;86405.25;;;-143.16;69.60
14885;BME280;7534;50.762;7.000;2023-07-29T11:17:57;86350.78;;;-143.16;69.82
14885;BME280;7534;50.762;7.000;2023-07-29T11:20:28;86340.69;;;-143.16;68.71
14885;BME280;7534;50.762;7.000;2023-07-29T11:23:00;86322.53;;;-143.16;67.25
14885;BME280;7534;50.762;7.000;2023-07-29T11:25:29;86328.56;;;-143.16;66.80
14885;BME280;7534;50.762;7.000;2023-07-29T11:27:58;86243.84;;;-143.16;66.36
14885;BME280;7534;50.762;7.000;2023-07-29T11:30:24;86118.75;;;-143.16;65.65
14885;BME280;7534;50.762;7.000;2023-07-29T11:32:55;86118.75;;;-143.16;63.37
14885;BME280;7534;50.762;7.000;2023-07-29T11:35:21;86070.34;;;-143.16;60.42
14885;BME280;7534;50.762;7.000;2023-07-29T11:37:50;85989.63;;;-143.16;60.08
14885;BME280;7534;50.762;7.000;2023-07-29T11:40:21;85949.28;;;-143.16;58.98
14885;BME280;7534;50.762;7.000;2023-07-29T11:42:49;85939.19;;;-143.16;58.09
14885;BME280;7534;50.762;7.000;2023-07-29T11:45:20;85870.63;;;-143.16;58.56
14885;BME280;7534;50.762;7.000;2023-07-29T11:47:46;85856.50;;;-143.16;59.13
14885;BME280;7534;50.762;7.000;2023-07-29T11:50:14;85830.28;;;-143.16;56.95
14885;BME280;7534;50.762;7.000;2023-07-29T11:52:41;85783.88;;;-143.16;57.96
14885;BME280;7534;50.762;7.000;2023-07-29T11:55:08;85691.06;;;-143.16;56.00
14885;BME280;7534;50.762;7.000;2023-07-29T11:57:37;85699.16;;;-143.16;53.78
14885;BME280;7534;50.762;7.000;2023-07-29T12:00:05;85630.56;;;-143.16;53.61
14885;BME280;7534;50.762;7.000;2023-07-29T12:02:36;85727.38;;;-143.16;51.96
14885;BME280;7534;50.762;7.000;2023-07-29T12:05:05;85674.94;;;-143.16;53.63
14885;BME280;7534;50.762;7.000;2023-07-29T12:07:31;85670.91;;;-143.16;51.86
14885;BME280;7534;50.762;7.000;2023-07-29T12:09:59;85723.34;;;-143.16;52.50
14885;BME280;7534;50.762;7.000;2023-07-29T12:12:25;85731.41;;;-143.16;53.07
14885;BME280;7534;50.762;7.000;2023-07-29T12:14:50;85630.56;;;-143.16;52.01
14885;BME280;7534;50.762;7.000;2023-07-29T12:17:18;85555.94;;;-143.16;51.42
14885;BME280;7534;50.762;7.000;2023-07-29T12:19:43;85614.44;;;-143.16;51.60
14885;BME280;7534;50.762;7.000;2023-07-29T12:22:11;85557.94;;;-143.16;51.05
14885;BME280;7534;50.762;7.000;2023-07-29T12:24:40;85666.88;;;-143.16;51.50
14885;BME280;7534;50.762;7.000;2023-07-29T12:27:11;85739.50;;;-143.16;52.74
14885;BME280;7534;50.762;7.000;2023-07-29T12:29:42;85787.91;;;-143.16;53.66
14885;BME280;7534;50.762;7.000;2023-07-29T12:32:09;85741.50;;;-143.16;53.31
14885;BME280;7534;50.762;7.000;2023-07-29T12:34:37;85717.31;;;-143.16;53.18
14885;BME280;7534;50.762;7.000;2023-07-29T12:37:05;85729.41;;;-143.16;53.32
14885;BME280;7534;50.762;7.000;2023-07-29T12:39:34;85739.50;;;-143.16;51.91
14885;BME280;7534;50.762;7.000;2023-07-29T12:42:03;85697.13;;;-143.16;51.61
14885;BME280;7534;50.762;7.000;2023-07-29T12:44:32;85719.31;;;-143.16;49.78
14885;BME280;7534;50.762;7.000;2023-07-29T12:47:02;85725.38;;;-143.16;50.31
14885;BME280;7534;50.762;7.000;2023-07-29T12:49:29;85709.22;;;-143.16;50.11
14885;BME280;7534;50.762;7.000;2023-07-29T12:51:57;85711.25;;;-143.16;50.30
14885;BME280;7534;50.762;7.000;2023-07-29T12:54:22;85592.25;;;-143.16;48.09
14885;BME280;7534;50.762;7.000;2023-07-29T12:56:48;85549.88;;;-143.16;47.76
14885;BME280;7534;50.762;7.000;2023-07-29T12:59:14;85574.09;;;-143.16;45.66
14885;BME280;7534;50.762;7.000;2023-07-29T13:01:40;85576.09;;;-143.16;46.37
14885;BME280;7534;50.762;7.000;2023-07-29T13:04:06;85511.56;;;-143.16;46.79
14885;BME280;7534;50.762;7.000;2023-07-29T13:06:31;85517.59;;;-143.16;45.83
14885;BME280;7534;50.762;7.000;2023-07-29T13:08:57;85376.41;;;-143.16;45.53